sensor_id;sensor_type;location;lat;lon;timestamp;pressure;altitude;pressure_sealevel;temperature;humidity
58668;BME280;59852;43.086;25.634;2024-01-30T00:00:28;101193.72;;;-0.41;86.31
58668;BME280;59852;43.086;25.634;2024-01-30T00:02:54;101198.84;;;-0.41;85.85
58668;BME280;59852;43.086;25.634;2024-01-30T00:05:19;101200.56;;;-0.43;86.27
58668;BME280;59852;43.086;25.634;2024-01-30T00:07:44;101202.38;;;-0.34;85.17
58668;BME280;59852;43.086;25.634;2024-01-30T00:10:10;101199.69;;;-0.43;85.51
58668;BME280;59852;43.086;25.634;2024-01-30T00:12:35;101204.00;;;-0.41;85.69
58668;BME280;59852;43.086;25.634;2024-01-30T00:15:00;101208.38;;;-0.35;84.66
58668;BME280;59852;43.086;25.634;2024-01-30T00:17:26;101206.75;;;-0.27;84.44
58668;BME280;59852;43.086;25.634;2024-01-30T00:19:51;101199.13;;;-0.19;83.96
58668;BME280;59852;43.086;25.634;2024-01-30T00:22:17;101203.25;;;-0.31;84.28
58668;BME280;59852;43.086;25.634;2024-01-30T00:24:42;101209.31;;;-0.28;84.25
58668;BME280;59852;43.086;25.634;2024-01-30T00:27:08;101203.31;;;-0.27;85.15
58668;BME280;59852;43.086;25.634;2024-01-30T00:29:33;101200.69;;;-0.32;84.34
58668;BME280;59852;43.086;25.634;2024-01-30T00:31:59;101197.84;;;-0.52;85.77
58668;BME280;59852;43.086;25.634;2024-01-30T00:34:24;101202.09;;;-0.57;86.12
58668;BME280;59852;43.086;25.634;2024-01-30T00:36:49;101206.69;;;-0.30;85.28
58668;BME280;59852;43.086;25.634;2024-01-30T00:39:15;101207.56;;;-0.30;85.46
58668;BME280;59852;43.086;25.634;2024-01-30T00:41:41;101206.75;;;-0.28;85.23
58668;BME280;59852;43.086;25.634;2024-01-30T00:44:06;101208.09;;;-0.55;86.11
58668;BME280;59852;43.086;25.634;2024-01-30T00:46:31;101209.13;;;-0.41;85.77
58668;BME280;59852;43.086;25.634;2024-01-30T00:48:57;101208.47;;;-0.29;84.96
58668;BME280;59852;43.086;25.634;2024-01-30T00:51:22;101203.09;;;-0.46;85.28
58668;BME280;59852;43.086;25.634;2024-01-30T00:53:47;101204.84;;;-0.40;85.77
58668;BME280;59852;43.086;25.634;2024-01-30T00:56:13;101201.59;;;-0.28;84.73
58668;BME280;59852;43.086;25.634;2024-01-30T00:58:38;101201.38;;;-0.47;84.70
58668;BME280;59852;43.086;25.634;2024-01-30T01:01:04;101197.97;;;-0.43;85.48
58668;BME280;59852;43.086;25.634;2024-01-30T01:03:29;101195.56;;;-0.31;84.55
58668;BME280;59852;43.086;25.634;2024-01-30T01:05:55;101199.66;;;-0.48;84.72
58668;BME280;59852;43.086;25.634;2024-01-30T01:08:20;101192.06;;;-0.37;85.59
58668;BME280;59852;43.086;25.634;2024-01-30T01:10:45;101193.03;;;-0.29;84.87
58668;BME280;59852;43.086;25.634;2024-01-30T01:13:11;101192.19;;;-0.26;83.83
58668;BME280;59852;43.086;25.634;2024-01-30T01:15:36;101186.91;;;-0.39;84.36
58668;BME280;59852;43.086;25.634;2024-01-30T01:18:02;101190.25;;;-0.43;84.13
58668;BME280;59852;43.086;25.634;2024-01-30T01:20:27;101191.34;;;-0.24;83.82
58668;BME280;59852;43.086;25.634;2024-01-30T01:22:53;101186.00;;;-0.41;83.91
58668;BME280;59852;43.086;25.634;2024-01-30T01:25:18;101178.34;;;-0.39;84.53
58668;BME280;59852;43.086;25.634;2024-01-30T01:27:43;101179.31;;;-0.28;83.83
58668;BME280;59852;43.086;25.634;2024-01-30T01:30:16;101184.41;;;-0.31;83.50
58668;BME280;59852;43.086;25.634;2024-01-30T01:32:46;101177.19;;;-0.60;85.11
58668;BME280;59852;43.086;25.634;2024-01-30T01:35:15;101179.13;;;-0.43;84.85
58668;BME280;59852;43.086;25.634;2024-01-30T01:37:41;101178.16;;;-0.50;84.71
58668;BME280;59852;43.086;25.634;2024-01-30T01:40:06;101173.81;;;-0.57;85.30
58668;BME280;59852;43.086;25.634;2024-01-30T01:42:32;101176.44;;;-0.52;84.61
58668;BME280;59852;43.086;25.634;2024-01-30T01:44:57;101180.47;;;-0.71;84.84
58668;BME280;59852;43.086;25.634;2024-01-30T01:47:22;101180.47;;;-0.70;86.05
58668;BME280;59852;43.086;25.634;2024-01-30T01:49:48;101170.88;;;-0.84;86.53
58668;BME280;59852;43.086;25.634;2024-01-30T01:52:13;101172.75;;;-0.71;86.16
58668;BME280;59852;43.086;25.634;2024-01-30T01:54:38;101173.97;;;-0.45;84.94
58668;BME280;59852;43.086;25.634;2024-01-30T01:57:04;101185.31;;;-0.29;83.86
58668;BME280;59852;43.086;25.634;2024-01-30T01:59:29;101184.13;;;-0.55;84.84
58668;BME280;59852;43.086;25.634;2024-01-30T02:01:55;101179.16;;;-0.40;84.71
58668;BME280;59852;43.086;25.634;2024-01-30T02:04:20;101184.13;;;-0.54;84.71
58668;BME280;59852;43.086;25.634;2024-01-30T02:06:46;101183.38;;;-0.47;84.72
58668;BME280;59852;43.086;25.634;2024-01-30T02:09:11;101180.78;;;-0.48;85.02
58668;BME280;59852;43.086;25.634;2024-01-30T02:11:37;101181.69;;;-0.45;84.27
58668;BME280;59852;43.086;25.634;2024-01-30T02:14:05;101184.97;;;-0.55;85.01
58668;BME280;59852;43.086;25.634;2024-01-30T02:16:31;101179.88;;;-0.52;84.28
58668;BME280;59852;43.086;25.634;2024-01-30T02:18:56;101183.31;;;-0.50;84.79
58668;BME280;59852;43.086;25.634;2024-01-30T02:21:21;101180.59;;;-0.61;85.11
58668;BME280;59852;43.086;25.634;2024-01-30T02:23:47;101173.81;;;-0.59;85.33
58668;BME280;59852;43.086;25.634;2024-01-30T02:26:13;101180.47;;;-0.70;85.21
58668;BME280;59852;43.086;25.634;2024-01-30T02:28:38;101179.13;;;-0.43;84.84
58668;BME280;59852;43.086;25.634;2024-01-30T02:31:04;101179.63;;;-0.70;85.26
58668;BME280;59852;43.086;25.634;2024-01-30T02:33:30;101179.00;;;-0.54;85.49
58668;BME280;59852;43.086;25.634;2024-01-30T02:35:55;101176.47;;;-0.49;84.68
58668;BME280;59852;43.086;25.634;2024-01-30T02:38:20;101166.19;;;-0.49;84.74
58668;BME280;59852;43.086;25.634;2024-01-30T02:40:46;101173.00;;;-0.54;85.23
58668;BME280;59852;43.086;25.634;2024-01-30T02:43:11;101175.56;;;-0.54;85.63
58668;BME280;59852;43.086;25.634;2024-01-30T02:45:37;101171.00;;;-0.75;85.61
58668;BME280;59852;43.086;25.634;2024-01-30T02:48:02;101165.06;;;-0.70;86.10
58668;BME280;59852;43.086;25.634;2024-01-30T02:50:27;101169.53;;;-0.56;85.91
58668;BME280;59852;43.086;25.634;2024-01-30T02:52:53;101177.28;;;-0.52;84.98
58668;BME280;59852;43.086;25.634;2024-01-30T02:55:18;101174.72;;;-0.52;85.28
58668;BME280;59852;43.086;25.634;2024-01-30T02:57:43;101170.41;;;-0.54;85.78
58668;BME280;59852;43.086;25.634;2024-01-30T03:00:09;101174.47;;;-0.70;85.99
58668;BME280;59852;43.086;25.634;2024-01-30T03:02:35;101167.69;;;-0.67;85.35
58668;BME280;59852;43.086;25.634;2024-01-30T03:05:00;101167.50;;;-0.79;85.91
58668;BME280;59852;43.086;25.634;2024-01-30T03:07:26;101171.16;;;-0.63;86.42
58668;BME280;59852;43.086;25.634;2024-01-30T03:09:51;101165.91;;;-0.71;85.81
58668;BME280;59852;43.086;25.634;2024-01-30T03:12:16;101165.88;;;-0.74;85.99
58668;BME280;59852;43.086;25.634;2024-01-30T03:14:42;101165.50;;;-0.38;85.34
58668;BME280;59852;43.086;25.634;2024-01-30T03:17:07;101164.25;;;-0.67;85.74
58668;BME280;59852;43.086;25.634;2024-01-30T03:19:32;101167.59;;;-0.73;85.63
58668;BME280;59852;43.086;25.634;2024-01-30T03:21:58;101168.41;;;-0.78;87.52
58668;BME280;59852;43.086;25.634;2024-01-30T03:24:23;101173.56;;;-0.75;86.01
58668;BME280;59852;43.086;25.634;2024-01-30T03:26:49;101172.13;;;-0.53;86.40
58668;BME280;59852;43.086;25.634;2024-01-30T03:29:14;101171.22;;;-0.59;86.68
58668;BME280;59852;43.086;25.634;2024-01-30T03:31:40;101176.16;;;-0.72;86.17
58668;BME280;59852;43.086;25.634;2024-01-30T03:34:05;101173.72;;;-0.65;85.46
58668;BME280;59852;43.086;25.634;2024-01-30T03:36:31;101171.22;;;-0.59;85.60
58668;BME280;59852;43.086;25.634;2024-01-30T03:38:58;101169.19;;;-0.81;86.30
58668;BME280;59852;43.086;25.634;2024-01-30T03:41:24;101178.81;;;-0.68;86.34
58668;BME280;59852;43.086;25.634;2024-01-30T03:43:49;101173.75;;;-0.60;85.92
58668;BME280;59852;43.086;25.634;2024-01-30T03:46:15;101173.38;;;-0.89;86.75
58668;BME280;59852;43.086;25.634;2024-01-30T03:48:40;101177.09;;;-0.69;86.85
58668;BME280;59852;43.086;25.634;2024-01-30T03:51:06;101176.19;;;-0.69;85.87
58668;BME280;59852;43.086;25.634;2024-01-30T03:53:31;101181.41;;;-0.65;86.17
58668;BME280;59852;43.086;25.634;2024-01-30T03:55:56;101171.00;;;-0.75;85.47
58668;BME280;59852;43.086;25.634;2024-01-30T03:58:22;101171.84;;;-0.78;86.41
58668;BME280;59852;43.086;25.634;2024-01-30T04:00:47;101178.97;;;-0.57;85.44
58668;BME280;59852;43.086;25.634;2024-01-30T04:03:14;101175.56;;;-0.53;85.27
58668;BME280;59852;43.086;25.634;2024-01-30T04:05:40;101182.31;;;-0.61;85.20
58668;BME280;59852;43.086;25.634;2024-01-30T04:08:05;101182.31;;;-0.61;84.95
58668;BME280;59852;43.086;25.634;2024-01-30T04:10:31;101178.81;;;-0.68;84.95
58668;BME280;59852;43.086;25.634;2024-01-30T04:12:56;101175.31;;;-0.71;85.04
58668;BME280;59852;43.086;25.634;2024-01-30T04:15:21;101177.91;;;-0.71;85.11
58668;BME280;59852;43.086;25.634;2024-01-30T04:17:47;101182.19;;;-0.72;85.10
58668;BME280;59852;43.086;25.634;2024-01-30T04:20:15;101182.78;;;-0.90;84.62
58668;BME280;59852;43.086;25.634;2024-01-30T04:22:44;101183.59;;;-0.92;85.72
58668;BME280;59852;43.086;25.634;2024-01-30T04:25:09;101181.28;;;-0.75;85.26
58668;BME280;59852;43.086;25.634;2024-01-30T04:27:35;101192.53;;;-0.67;85.05
58668;BME280;59852;43.086;25.634;2024-01-30T04:30:00;101190.91;;;-0.59;84.90
58668;BME280;59852;43.086;25.634;2024-01-30T04:32:25;101192.38;;;-0.78;84.82
58668;BME280;59852;43.086;25.634;2024-01-30T04:34:51;101188.84;;;-0.84;85.33
58668;BME280;59852;43.086;25.634;2024-01-30T04:37:16;101181.19;;;-0.80;85.37
58668;BME280;59852;43.086;25.634;2024-01-30T04:39:41;101194.84;;;-0.85;85.39
58668;BME280;59852;43.086;25.634;2024-01-30T04:42:07;101193.16;;;-0.82;85.01
58668;BME280;59852;43.086;25.634;2024-01-30T04:44:32;101194.03;;;-0.81;85.83
58668;BME280;59852;43.086;25.634;2024-01-30T04:46:57;101192.97;;;-0.97;85.63
58668;BME280;59852;43.086;25.634;2024-01-30T04:49:26;101200.81;;;-0.88;86.14
58668;BME280;59852;43.086;25.634;2024-01-30T04:51:51;101193.97;;;-0.86;85.47
58668;BME280;59852;43.086;25.634;2024-01-30T04:54:17;101194.78;;;-0.89;85.24
58668;BME280;59852;43.086;25.634;2024-01-30T04:56:42;101190.72;;;-0.73;85.14
58668;BME280;59852;43.086;25.634;2024-01-30T04:59:08;101200.97;;;-0.77;84.75
58668;BME280;59852;43.086;25.634;2024-01-30T05:01:33;101195.69;;;-0.87;85.38
58668;BME280;59852;43.086;25.634;2024-01-30T05:03:59;101195.59;;;-0.93;84.79
58668;BME280;59852;43.086;25.634;2024-01-30T05:06:27;101190.69;;;-0.76;85.07
58668;BME280;59852;43.086;25.634;2024-01-30T05:08:53;101196.63;;;-0.80;85.16
58668;BME280;59852;43.086;25.634;2024-01-30T05:11:18;101199.41;;;-0.66;84.41
58668;BME280;59852;43.086;25.634;2024-01-30T05:13:43;101204.03;;;-1.00;85.73
58668;BME280;59852;43.086;25.634;2024-01-30T05:16:08;101198.25;;;-0.88;85.76
58668;BME280;59852;43.086;25.634;2024-01-30T05:18:34;101198.09;;;-0.97;85.52
58668;BME280;59852;43.086;25.634;2024-01-30T05:20:59;101195.59;;;-0.91;85.05
58668;BME280;59852;43.086;25.634;2024-01-30T05:23:25;101203.47;;;-0.79;85.30
58668;BME280;59852;43.086;25.634;2024-01-30T05:25:50;101200.84;;;-0.85;85.14
58668;BME280;59852;43.086;25.634;2024-01-30T05:28:15;101194.00;;;-0.83;85.57
58668;BME280;59852;43.086;25.634;2024-01-30T05:30:40;101193.13;;;-0.87;85.08
58668;BME280;59852;43.086;25.634;2024-01-30T05:33:06;101190.53;;;-0.88;84.75
58668;BME280;59852;43.086;25.634;2024-01-30T05:35:31;101190.16;;;-1.11;85.90
58668;BME280;59852;43.086;25.634;2024-01-30T05:37:56;101186.88;;;-1.02;86.09
58668;BME280;59852;43.086;25.634;2024-01-30T05:40:22;101197.88;;;-1.11;85.91
58668;BME280;59852;43.086;25.634;2024-01-30T05:42:47;101197.25;;;-0.96;85.51
58668;BME280;59852;43.086;25.634;2024-01-30T05:45:13;101201.28;;;-1.12;85.54
58668;BME280;59852;43.086;25.634;2024-01-30T05:47:38;101199.75;;;-1.01;86.41
58668;BME280;59852;43.086;25.634;2024-01-30T05:50:04;101204.88;;;-1.01;86.02
58668;BME280;59852;43.086;25.634;2024-01-30T05:52:30;101198.19;;;-0.90;85.81
58668;BME280;59852;43.086;25.634;2024-01-30T05:54:55;101198.25;;;-0.88;85.55
58668;BME280;59852;43.086;25.634;2024-01-30T05:57:20;101210.84;;;-1.03;85.31
58668;BME280;59852;43.086;25.634;2024-01-30T05:59:45;101199.75;;;-1.01;85.67
58668;BME280;59852;43.086;25.634;2024-01-30T06:02:13;101205.00;;;-0.92;86.11
58668;BME280;59852;43.086;25.634;2024-01-30T06:04:38;101208.31;;;-0.99;85.80
58668;BME280;59852;43.086;25.634;2024-01-30T06:07:03;101211.59;;;-1.10;85.71
58668;BME280;59852;43.086;25.634;2024-01-30T06:09:31;101210.25;;;-0.87;85.51
58668;BME280;59852;43.086;25.634;2024-01-30T06:11:56;101216.09;;;-0.97;85.02
58668;BME280;59852;43.086;25.634;2024-01-30T06:14:22;101211.25;;;-0.77;85.21
58668;BME280;59852;43.086;25.634;2024-01-30T06:16:47;101216.44;;;-0.73;84.67
58668;BME280;59852;43.086;25.634;2024-01-30T06:19:12;101211.28;;;-0.73;85.18
58668;BME280;59852;43.086;25.634;2024-01-30T06:21:37;101208.00;;;-0.63;84.78
58668;BME280;59852;43.086;25.634;2024-01-30T06:24:03;101211.25;;;-0.76;84.64
58668;BME280;59852;43.086;25.634;2024-01-30T06:26:29;101212.13;;;-0.75;84.27
58668;BME280;59852;43.086;25.634;2024-01-30T06:28:54;101209.28;;;-0.92;85.07
58668;BME280;59852;43.086;25.634;2024-01-30T06:31:19;101206.88;;;-0.81;84.67
58668;BME280;59852;43.086;25.634;2024-01-30T06:33:48;101207.03;;;-0.69;84.63
58668;BME280;59852;43.086;25.634;2024-01-30T06:36:13;101203.38;;;-0.88;84.55
58668;BME280;59852;43.086;25.634;2024-01-30T06:38:39;101202.69;;;-0.76;85.18
58668;BME280;59852;43.086;25.634;2024-01-30T06:41:04;101211.31;;;-0.70;84.44
58668;BME280;59852;43.086;25.634;2024-01-30T06:43:29;101208.00;;;-0.61;83.61
58668;BME280;59852;43.086;25.634;2024-01-30T06:45:55;101211.25;;;-0.77;84.43
58668;BME280;59852;43.086;25.634;2024-01-30T06:48:20;101215.53;;;-0.76;84.22
58668;BME280;59852;43.086;25.634;2024-01-30T06:50:45;101219.84;;;-0.74;85.06
58668;BME280;59852;43.086;25.634;2024-01-30T06:53:11;101224.13;;;-0.74;84.02
58668;BME280;59852;43.086;25.634;2024-01-30T06:55:36;101229.94;;;-0.88;84.64
58668;BME280;59852;43.086;25.634;2024-01-30T06:58:01;101234.50;;;-0.68;84.78
58668;BME280;59852;43.086;25.634;2024-01-30T07:00:27;101237.09;;;-0.65;84.32
58668;BME280;59852;43.086;25.634;2024-01-30T07:02:52;101228.63;;;-0.58;83.72
58668;BME280;59852;43.086;25.634;2024-01-30T07:05:18;101229.34;;;-0.68;83.98
58668;BME280;59852;43.086;25.634;2024-01-30T07:07:43;101233.59;;;-0.70;83.74
58668;BME280;59852;43.086;25.634;2024-01-30T07:10:08;101229.31;;;-0.70;83.35
58668;BME280;59852;43.086;25.634;2024-01-30T07:12:34;101246.38;;;-0.75;84.12
58668;BME280;59852;43.086;25.634;2024-01-30T07:14:59;101237.97;;;-0.63;84.31
58668;BME280;59852;43.086;25.634;2024-01-30T07:17:24;101234.66;;;-0.56;83.02
58668;BME280;59852;43.086;25.634;2024-01-30T07:19:50;101226.97;;;-0.54;83.63
58668;BME280;59852;43.086;25.634;2024-01-30T07:22:15;101229.59;;;-0.50;82.64
58668;BME280;59852;43.086;25.634;2024-01-30T07:24:43;101230.53;;;-0.43;83.18
58668;BME280;59852;43.086;25.634;2024-01-30T07:27:14;101223.78;;;-0.35;83.34
58668;BME280;59852;43.086;25.634;2024-01-30T07:29:39;101232.13;;;-0.51;83.09
58668;BME280;59852;43.086;25.634;2024-01-30T07:32:05;101228.63;;;-0.58;83.94
58668;BME280;59852;43.086;25.634;2024-01-30T07:34:30;101228.53;;;-0.66;83.72
58668;BME280;59852;43.086;25.634;2024-01-30T07:36:55;101237.16;;;-0.61;83.24
58668;BME280;59852;43.086;25.634;2024-01-30T07:39:21;101237.34;;;-0.48;83.31
58668;BME280;59852;43.086;25.634;2024-01-30T07:41:46;101239.13;;;-0.41;82.72
58668;BME280;59852;43.086;25.634;2024-01-30T07:44:11;101243.56;;;-0.30;82.76
58668;BME280;59852;43.086;25.634;2024-01-30T07:46:37;101234.81;;;-0.44;83.00
58668;BME280;59852;43.086;25.634;2024-01-30T07:49:02;101239.94;;;-0.45;83.03
58668;BME280;59852;43.086;25.634;2024-01-30T07:51:28;101244.47;;;-0.27;82.25
58668;BME280;59852;43.086;25.634;2024-01-30T07:53:54;101242.59;;;-0.39;82.35
58668;BME280;59852;43.086;25.634;2024-01-30T07:56:19;101246.91;;;-0.37;82.27
58668;BME280;59852;43.086;25.634;2024-01-30T07:58:45;101241.63;;;-0.49;82.45
58668;BME280;59852;43.086;25.634;2024-01-30T08:01:10;101246.00;;;-0.40;82.94
58668;BME280;59852;43.086;25.634;2024-01-30T08:03:35;101248.78;;;-0.25;82.40
58668;BME280;59852;43.086;25.634;2024-01-30T08:06:02;101247.81;;;-0.33;82.28
58668;BME280;59852;43.086;25.634;2024-01-30T08:08:27;101254.75;;;-0.29;82.21
58668;BME280;59852;43.086;25.634;2024-01-30T08:10:53;101253.06;;;-0.25;81.73
58668;BME280;59852;43.086;25.634;2024-01-30T08:13:18;101248.81;;;-0.22;81.27
58668;BME280;59852;43.086;25.634;2024-01-30T08:15:44;101239.56;;;-0.09;80.80
58668;BME280;59852;43.086;25.634;2024-01-30T08:18:09;101236.78;;;-0.26;81.05
58668;BME280;59852;43.086;25.634;2024-01-30T08:20:34;101248.91;;;-0.14;81.72
58668;BME280;59852;43.086;25.634;2024-01-30T08:23:00;101253.03;;;-0.27;81.23
58668;BME280;59852;43.086;25.634;2024-01-30T08:25:25;101250.72;;;-0.07;81.03
58668;BME280;59852;43.086;25.634;2024-01-30T08:27:51;101248.97;;;-0.10;81.60
58668;BME280;59852;43.086;25.634;2024-01-30T08:30:16;101247.03;;;-0.27;80.88
58668;BME280;59852;43.086;25.634;2024-01-30T08:32:41;101250.63;;;-0.15;80.49
58668;BME280;59852;43.086;25.634;2024-01-30T08:35:07;101253.28;;;-0.07;80.04
58668;BME280;59852;43.086;25.634;2024-01-30T08:37:33;101252.34;;;-0.14;80.65
58668;BME280;59852;43.086;25.634;2024-01-30T08:39:58;101252.22;;;-0.24;81.46
58668;BME280;59852;43.086;25.634;2024-01-30T08:42:24;101246.34;;;-0.14;82.25
58668;BME280;59852;43.086;25.634;2024-01-30T08:44:50;101248.31;;;0.08;80.96
58668;BME280;59852;43.086;25.634;2024-01-30T08:47:18;101252.19;;;-0.27;81.95
58668;BME280;59852;43.086;25.634;2024-01-30T08:49:44;101252.94;;;-0.36;82.21
58668;BME280;59852;43.086;25.634;2024-01-30T08:52:10;101257.34;;;-0.24;81.82
58668;BME280;59852;43.086;25.634;2024-01-30T08:54:35;101253.94;;;-0.22;81.42
58668;BME280;59852;43.086;25.634;2024-01-30T08:57:00;101253.28;;;-0.07;81.04
58668;BME280;59852;43.086;25.634;2024-01-30T08:59:26;101251.63;;;-0.04;80.87
58668;BME280;59852;43.086;25.634;2024-01-30T09:01:51;101243.03;;;-0.03;80.37
58668;BME280;59852;43.086;25.634;2024-01-30T09:04:19;101255.06;;;-0.02;80.80
58668;BME280;59852;43.086;25.634;2024-01-30T09:06:45;101254.56;;;-0.40;80.77
58668;BME280;59852;43.086;25.634;2024-01-30T09:09:10;101251.34;;;-0.25;80.87
58668;BME280;59852;43.086;25.634;2024-01-30T09:11:35;101244.66;;;-0.11;79.73
58668;BME280;59852;43.086;25.634;2024-01-30T09:14:01;101240.19;;;-0.25;82.02
58668;BME280;59852;43.086;25.634;2024-01-30T09:16:26;101238.50;;;-0.25;81.02
58668;BME280;59852;43.086;25.634;2024-01-30T09:18:51;101244.53;;;-0.20;80.82
58668;BME280;59852;43.086;25.634;2024-01-30T09:21:17;101236.06;;;-0.11;80.40
58668;BME280;59852;43.086;25.634;2024-01-30T09:23:42;101234.09;;;-0.32;80.75
58668;BME280;59852;43.086;25.634;2024-01-30T09:26:07;101230.34;;;0.11;80.76
58668;BME280;59852;43.086;25.634;2024-01-30T09:28:33;101226.16;;;0.21;79.83
58668;BME280;59852;43.086;25.634;2024-01-30T09:30:58;101220.63;;;-0.13;79.86
58668;BME280;59852;43.086;25.634;2024-01-30T09:33:23;101218.28;;;0.06;79.43
58668;BME280;59852;43.086;25.634;2024-01-30T09:35:48;101221.63;;;-0.02;79.94
58668;BME280;59852;43.086;25.634;2024-01-30T09:38:14;101216.63;;;0.11;80.27
58668;BME280;59852;43.086;25.634;2024-01-30T09:40:39;101215.69;;;0.03;80.30
58668;BME280;59852;43.086;25.634;2024-01-30T09:43:06;101213.97;;;0.05;79.73
58668;BME280;59852;43.086;25.634;2024-01-30T09:45:32;101223.63;;;0.25;78.98
58668;BME280;59852;43.086;25.634;2024-01-30T09:47:58;101210.56;;;0.06;79.03
58668;BME280;59852;43.086;25.634;2024-01-30T09:50:24;101212.44;;;0.22;79.84
58668;BME280;59852;43.086;25.634;2024-01-30T09:52:49;101211.44;;;0.08;79.13
58668;BME280;59852;43.086;25.634;2024-01-30T09:55:15;101212.50;;;0.28;78.80
58668;BME280;59852;43.086;25.634;2024-01-30T09:57:41;101214.81;;;0.02;79.00
58668;BME280;59852;43.086;25.634;2024-01-30T10:00:06;101213.91;;;-0.02;79.83
58668;BME280;59852;43.086;25.634;2024-01-30T10:02:34;101214.84;;;0.07;79.58
58668;BME280;59852;43.086;25.634;2024-01-30T10:04:59;101218.56;;;0.33;78.80
58668;BME280;59852;43.086;25.634;2024-01-30T10:07:25;101210.53;;;0.04;79.25
58668;BME280;59852;43.086;25.634;2024-01-30T10:09:50;101211.59;;;0.21;79.68
58668;BME280;59852;43.086;25.634;2024-01-30T10:12:16;101215.03;;;0.23;79.51
58668;BME280;59852;43.086;25.634;2024-01-30T10:14:42;101213.25;;;0.19;79.88
58668;BME280;59852;43.086;25.634;2024-01-30T10:17:11;101216.84;;;0.34;78.92
58668;BME280;59852;43.086;25.634;2024-01-30T10:19:40;101216.78;;;0.26;79.28
58668;BME280;59852;43.086;25.634;2024-01-30T10:22:05;101208.19;;;0.25;78.99
58668;BME280;59852;43.086;25.634;2024-01-30T10:24:31;101213.44;;;0.38;78.76
58668;BME280;59852;43.086;25.634;2024-01-30T10:26:58;101216.84;;;0.31;79.42
58668;BME280;59852;43.086;25.634;2024-01-30T10:29:23;101216.63;;;0.12;79.48
58668;BME280;59852;43.086;25.634;2024-01-30T10:32:01;101203.03;;;0.24;79.37
58668;BME280;59852;43.086;25.634;2024-01-30T10:34:27;101205.69;;;0.33;79.55
58668;BME280;59852;43.086;25.634;2024-01-30T10:36:59;101208.28;;;0.38;78.32
58668;BME280;59852;43.086;25.634;2024-01-30T10:39:25;101203.31;;;0.51;77.79
58668;BME280;59852;43.086;25.634;2024-01-30T10:41:52;101206.25;;;0.03;77.84
58668;BME280;59852;43.086;25.634;2024-01-30T10:44:21;101207.41;;;0.34;77.53
58668;BME280;59852;43.086;25.634;2024-01-30T10:46:50;101208.47;;;0.53;77.76
58668;BME280;59852;43.086;25.634;2024-01-30T10:49:16;101198.94;;;0.47;77.10
58668;BME280;59852;43.086;25.634;2024-01-30T10:51:41;101190.53;;;0.64;76.97
58668;BME280;59852;43.086;25.634;2024-01-30T10:54:07;101191.38;;;0.61;77.21
58668;BME280;59852;43.086;25.634;2024-01-30T10:56:33;101194.81;;;0.65;77.35
58668;BME280;59852;43.086;25.634;2024-01-30T10:58:59;101194.88;;;0.72;76.87
58668;BME280;59852;43.086;25.634;2024-01-30T11:01:24;101190.59;;;0.76;76.20
58668;BME280;59852;43.086;25.634;2024-01-30T11:03:51;101186.22;;;0.64;75.51
58668;BME280;59852;43.086;25.634;2024-01-30T11:06:17;101178.59;;;0.78;75.72
58668;BME280;59852;43.086;25.634;2024-01-30T11:08:46;101177.56;;;0.51;76.29
58668;BME280;59852;43.086;25.634;2024-01-30T11:11:11;101175.06;;;0.65;75.75
58668;BME280;59852;43.086;25.634;2024-01-30T11:13:37;101176.06;;;0.82;75.24
58668;BME280;59852;43.086;25.634;2024-01-30T11:16:05;101165.72;;;0.78;75.29
58668;BME280;59852;43.086;25.634;2024-01-30T11:18:31;101173.50;;;0.84;75.15
58668;BME280;59852;43.086;25.634;2024-01-30T11:20:57;101163.97;;;0.72;74.22
58668;BME280;59852;43.086;25.634;2024-01-30T11:23:23;101170.78;;;0.63;74.41
58668;BME280;59852;43.086;25.634;2024-01-30T11:25:48;101159.63;;;0.65;74.75
58668;BME280;59852;43.086;25.634;2024-01-30T11:28:14;101162.25;;;0.71;74.23
58668;BME280;59852;43.086;25.634;2024-01-30T11:30:43;101158.00;;;0.78;74.92
58668;BME280;59852;43.086;25.634;2024-01-30T11:33:10;101144.19;;;0.68;73.91
58668;BME280;59852;43.086;25.634;2024-01-30T11:35:42;101145.88;;;0.62;74.33
58668;BME280;59852;43.086;25.634;2024-01-30T11:38:09;101144.28;;;0.79;75.06
58668;BME280;59852;43.086;25.634;2024-01-30T11:40:36;101138.28;;;0.80;75.34
58668;BME280;59852;43.086;25.634;2024-01-30T11:43:03;101141.66;;;0.71;75.22
58668;BME280;59852;43.086;25.634;2024-01-30T11:45:30;101142.59;;;0.84;74.94
58668;BME280;59852;43.086;25.634;2024-01-30T11:47:55;101132.16;;;0.69;75.35
58668;BME280;59852;43.086;25.634;2024-01-30T11:50:21;101134.00;;;0.80;75.54
58668;BME280;59852;43.086;25.634;2024-01-30T11:52:47;101127.84;;;0.63;74.95
58668;BME280;59852;43.086;25.634;2024-01-30T11:55:13;101121.84;;;0.61;74.52
58668;BME280;59852;43.086;25.634;2024-01-30T11:57:39;101128.75;;;0.70;75.27
58668;BME280;59852;43.086;25.634;2024-01-30T12:00:05;101124.50;;;0.78;74.46
58668;BME280;59852;43.086;25.634;2024-01-30T12:02:37;101123.56;;;0.64;74.33
58668;BME280;59852;43.086;25.634;2024-01-30T12:05:04;101118.47;;;0.71;74.61
58668;BME280;59852;43.086;25.634;2024-01-30T12:07:29;101120.13;;;0.65;74.51
58668;BME280;59852;43.086;25.634;2024-01-30T12:09:55;101114.91;;;0.57;73.87
58668;BME280;59852;43.086;25.634;2024-01-30T12:12:24;101115.00;;;0.68;73.61
58668;BME280;59852;43.086;25.634;2024-01-30T12:14:50;101117.56;;;0.63;73.42
58668;BME280;59852;43.086;25.634;2024-01-30T12:17:29;101115.06;;;0.77;73.06
58668;BME280;59852;43.086;25.634;2024-01-30T12:22:49;101110.88;;;0.91;72.25
58668;BME280;59852;43.086;25.634;2024-01-30T12:25:16;101106.41;;;0.69;72.51
58668;BME280;59852;43.086;25.634;2024-01-30T12:27:42;101103.81;;;0.64;73.49
58668;BME280;59852;43.086;25.634;2024-01-30T12:30:08;101100.50;;;0.79;73.20
58668;BME280;59852;43.086;25.634;2024-01-30T12:32:41;101098.00;;;0.94;72.43
58668;BME280;59852;43.086;25.634;2024-01-30T12:35:08;101100.56;;;0.96;72.37
58668;BME280;59852;43.086;25.634;2024-01-30T12:37:34;101105.72;;;0.93;73.42